Salem, OR (97303)

3:29 AM PST on December 06, 2016 (GMT -0800)
Northridge Park | | Change Station

Elev 141 ft 45.00 °N, 123.01 °W | Updated 6 seconds ago

Light Rain
Light Rain
36.3 °F
Feels Like 33 °F
N
4.0
Wind Variable Wind from SSE
Gusts 7.0 mph

Today
High -- | Low -- °F
--% Chance of Precip.
Yesterday
High -- | Low -- °F
Precip. -- in
Pressure 30.01 in
Visibility 9.0 miles
Clouds Overcast 900 ft
Windchill 33 °F
Dew Point 36 °F
Humidity 98%
Rainfall 0.02 in
Snow Depth Not available.
7:36 AM 4:30 PM
Waxing Crescent, 41% visible
METAR KSLE 061056Z AUTO 20004KT 9SM -RA OVC009 03/01 A3000 RMK AO2 RAB28 SLP160 P0001 T00280011
Pressure 30.01 in
Visibility 9.0 miles
Clouds Overcast 900 ft
Windchill 33 °F
Dew Point 36 °F
Humidity 98%
Rainfall 0.02 in
Snow Depth Not available.
7:36 AM 4:30 PM
Waxing Crescent, 41% visible
METAR KSLE 061056Z AUTO 20004KT 9SM -RA OVC009 03/01 A3000 RMK AO2 RAB28 SLP160 P0001 T00280011

10-Day Weather Forecast

Almanac

Astronomy

Dec. 06, 2016 Rise Set
Actual Time
Civil Twilight
Nautical Twilight
Astronomical Twilight
Moon
Length of Visible Light
Length of Day
Tomorrow will be .
, % of the Moon is Illuminated

Today's Extremes

State Highs State Lows

Community

WunderPhotos

Upload Photos

1,955,935 photos uploaded!

WunderBlog® & News

Nearby

Air Quality

  Air Quality AQ Index Pollutant
Not available.

Snow Depth

Station Depth Elevation

Earthquake Activity

City Distance Mag. Time & Date
Minimum magnitude displayed is 2.5.

Coastal Water Temperatures

Place Temperature

Stations

Nearby Weather Stations

Station Location Temp. Windchill Dew Point Humidity Wind Precip. Elev Updated Type
                   

Watches & Warnings

There are currently no watches in effect.